Time;durP1;ratioP1;P1;durP2;ratioP2;P2;SDS_P1;SDS_P2;PMS_P1;PMS_P2;Temp;Humidity;BMP_temperature;BMP_pressure;BME280_temperature;BME280_humidity;BME280_pressure;Samples;Min_cycle;Max_cycle;Signal;HPM_P1;HPM_P2
2023/03/01 00:01:32;;;;;;;9.80;6.78;;;2.20;99.90;;;;;;5118950;28;20031;-67
2023/03/01 00:03:59;;;;;;;7.95;6.55;;;2.10;99.90;;;;;;5118706;28;20046;-67
2023/03/01 00:06:25;;;;;;;7.93;6.32;;;2.10;99.90;;;;;;5119567;28;20035;-67
2023/03/01 00:08:52;;;;;;;9.05;6.68;;;2.10;99.90;;;;;;5101721;28;20024;-67
2023/03/01 00:11:21;;;;;;;7.57;6.13;;;2.10;99.90;;;;;;5119505;28;20028;-67
2023/03/01 00:13:49;;;;;;;8.43;6.75;;;2.00;99.90;;;;;;5118714;28;20390;-67
2023/03/01 00:16:25;;;;;;;7.75;6.30;;;2.00;99.90;;;;;;5119329;28;20038;-67
2023/03/01 00:18:50;;;;;;;8.10;6.68;;;2.00;99.90;;;;;;5119989;28;20395;-67
2023/03/01 00:21:17;;;;;;;8.00;5.95;;;2.00;99.90;;;;;;5118658;28;20062;-67
2023/03/01 00:23:43;;;;;;;8.25;6.20;;;1.90;99.90;;;;;;5118400;28;20205;-67
2023/03/01 00:26:12;;;;;;;7.80;6.35;;;1.90;99.90;;;;;;5101495;28;20374;-67
2023/03/01 00:28:39;;;;;;;9.57;6.78;;;1.90;99.90;;;;;;5101987;28;20455;-67
2023/03/01 00:31:13;;;;;;;7.88;6.35;;;1.90;99.90;;;;;;5119140;28;20107;-67
2023/03/01 00:33:40;;;;;;;9.75;6.63;;;1.80;99.90;;;;;;5119718;28;20027;-67
2023/03/01 00:36:07;;;;;;;8.13;6.10;;;1.80;99.90;;;;;;5118996;28;20036;-67
2023/03/01 00:38:40;;;;;;;8.55;6.90;;;1.90;99.90;;;;;;5118953;28;20043;-67
2023/03/01 00:41:12;;;;;;;11.93;6.53;;;1.80;99.90;;;;;;5101513;28;20038;-67
2023/03/01 00:43:38;;;;;;;7.40;6.50;;;1.70;99.90;;;;;;5118827;28;20070;-67
2023/03/01 00:46:12;;;;;;;9.85;6.40;;;1.80;99.90;;;;;;5117994;28;20046;-67
2023/03/01 00:48:38;;;;;;;9.52;6.60;;;1.80;99.90;;;;;;5119431;28;20107;-67
2023/03/01 00:51:16;;;;;;;11.85;6.85;;;1.60;99.90;;;;;;5117887;28;20106;-67
2023/03/01 00:53:42;;;;;;;9.43;6.32;;;1.60;99.90;;;;;;5118648;28;20048;-67
2023/03/01 00:56:10;;;;;;;8.52;6.78;;;1.70;99.90;;;;;;5118589;28;20302;-67
2023/03/01 00:58:37;;;;;;;8.57;6.65;;;1.70;99.90;;;;;;5117880;28;20102;-67
2023/03/01 01:01:16;;;;;;;7.70;6.40;;;1.70;99.90;;;;;;5118524;27;20061;-67
2023/03/01 01:03:55;;;;;;;8.30;6.40;;;1.60;99.90;;;;;;5117607;28;20046;-67
2023/03/01 01:06:24;;;;;;;9.95;6.55;;;1.60;99.90;;;;;;5118435;28;20028;-67
2023/03/01 01:08:52;;;;;;;9.77;6.28;;;1.50;99.90;;;;;;5118308;28;20016;-67
2023/03/01 01:11:18;;;;;;;10.27;6.55;;;1.50;99.90;;;;;;5118359;28;20100;-67
2023/03/01 01:13:46;;;;;;;8.98;6.68;;;1.50;99.90;;;;;;5118310;28;20040;-67
2023/03/01 01:16:12;;;;;;;9.05;7.07;;;1.50;99.90;;;;;;5118193;28;20023;-67
2023/03/01 01:18:39;;;;;;;8.57;6.47;;;1.50;99.90;;;;;;5118211;28;20068;-67
2023/03/01 01:21:10;;;;;;;11.02;7.30;;;1.50;99.90;;;;;;5100816;28;20046;-67
2023/03/01 01:23:38;;;;;;;7.40;5.07;;;1.50;99.90;;;;;;5118077;28;20075;-67
2023/03/01 01:26:09;;;;;;;9.18;6.45;;;1.50;99.90;;;;;;5117359;28;20088;-67
2023/03/01 01:28:35;;;;;;;6.93;5.13;;;1.50;99.90;;;;;;5100295;28;20059;-67
2023/03/01 01:31:02;;;;;;;7.80;6.30;;;1.40;99.90;;;;;;5117268;28;20024;-67
2023/03/01 01:33:28;;;;;;;7.35;6.32;;;1.20;99.90;;;;;;5117957;28;20031;-67
2023/03/01 01:35:54;;;;;;;9.68;6.97;;;1.40;99.90;;;;;;5100232;28;20397;-67
2023/03/01 01:38:21;;;;;;;7.97;6.30;;;1.30;99.90;;;;;;5117825;28;20387;-67
2023/03/01 01:40:48;;;;;;;12.20;6.80;;;1.30;99.90;;;;;;5117004;28;20028;-67
2023/03/01 01:43:31;;;;;;;9.45;6.68;;;1.30;99.90;;;;;;5116823;28;20027;-67
2023/03/01 01:46:12;;;;;;;7.95;6.10;;;1.40;99.90;;;;;;5117801;28;20027;-67
2023/03/01 01:48:43;;;;;;;8.43;6.55;;;1.30;99.90;;;;;;5099888;28;20081;-67
2023/03/01 01:51:20;;;;;;;10.07;7.07;;;1.30;99.90;;;;;;5116973;28;20032;-67
2023/03/01 01:53:51;;;;;;;9.55;6.95;;;1.30;99.90;;;;;;5117489;28;20059;-67
2023/03/01 01:56:18;;;;;;;8.32;6.78;;;1.30;99.90;;;;;;5116842;28;20042;-67
2023/03/01 01:58:47;;;;;;;11.43;7.18;;;1.30;99.90;;;;;;5117800;28;20124;-67
2023/03/01 02:01:13;;;;;;;8.30;7.03;;;1.30;99.90;;;;;;5083340;28;20028;-67
2023/03/01 02:03:42;;;;;;;9.80;7.00;;;1.30;99.90;;;;;;5116684;28;20035;-67
2023/03/01 02:06:36;;;;;;;8.13;7.00;;;1.30;99.90;;;;;;5117443;28;20038;-67
2023/03/01 02:09:11;;;;;;;8.25;6.70;;;1.30;99.90;;;;;;5116572;28;20031;-67
2023/03/01 02:11:37;;;;;;;9.43;6.45;;;1.30;99.90;;;;;;5116682;28;20035;-67
2023/03/01 02:14:03;;;;;;;10.52;6.72;;;1.20;99.90;;;;;;5082782;28;20019;-68
2023/03/01 02:16:30;;;;;;;7.40;6.60;;;1.10;99.90;;;;;;5083018;28;20038;-67
2023/03/01 02:18:58;;;;;;;9.60;7.03;;;1.10;99.90;;;;;;5116502;28;20108;-66
2023/03/01 02:21:49;;;;;;;8.65;6.80;;;1.10;99.90;;;;;;5116485;28;20337;-67
2023/03/01 02:24:33;;;;;;;8.20;6.55;;;1.00;99.90;;;;;;5117153;28;20038;-67
2023/03/01 02:27:00;;;;;;;9.50;6.72;;;1.00;99.90;;;;;;5100792;28;20283;-67
2023/03/01 02:29:28;;;;;;;8.63;6.40;;;1.00;99.90;;;;;;5120820;28;20019;-67
2023/03/01 02:31:57;;;;;;;9.05;6.55;;;1.00;99.90;;;;;;5121580;28;20411;-67
2023/03/01 02:34:28;;;;;;;11.38;7.63;;;1.00;99.90;;;;;;5121890;28;20062;-67
2023/03/01 02:37:08;;;;;;;12.07;7.03;;;1.00;99.90;;;;;;5120554;28;20036;-67
2023/03/01 02:39:50;;;;;;;9.27;6.55;;;1.10;99.90;;;;;;5103692;28;20023;-67
2023/03/01 02:42:23;;;;;;;10.15;6.45;;;1.10;99.90;;;;;;5120421;28;20028;-67
2023/03/01 02:44:50;;;;;;;8.80;7.00;;;1.20;99.90;;;;;;5121507;28;20272;-67
2023/03/01 02:47:15;;;;;;;8.38;6.70;;;1.20;99.90;;;;;;5120813;28;20106;-67
2023/03/01 02:49:41;;;;;;;11.85;6.55;;;1.20;99.90;;;;;;5103511;28;20103;-67
2023/03/01 02:52:16;;;;;;;8.25;6.75;;;1.10;99.90;;;;;;5103237;28;20039;-67
2023/03/01 02:54:52;;;;;;;9.65;6.78;;;1.10;99.90;;;;;;5120337;28;20039;-67
2023/03/01 02:57:19;;;;;;;9.48;6.57;;;1.00;99.90;;;;;;5121030;28;20422;-67
2023/03/01 02:59:45;;;;;;;10.52;6.63;;;1.00;99.90;;;;;;5120122;28;20128;-67
2023/03/01 03:02:35;;;;;;;8.40;6.60;;;1.00;99.90;;;;;;5120844;28;20316;-67
2023/03/01 03:05:10;;;;;;;7.50;5.30;;;1.00;99.90;;;;;;5120131;28;20062;-67
2023/03/01 03:07:39;;;;;;;8.07;6.43;;;1.00;99.90;;;;;;5119899;28;20439;-67
2023/03/01 03:10:11;;;;;;;7.75;5.85;;;1.00;99.90;;;;;;5120389;28;20290;-68
2023/03/01 03:12:37;;;;;;;8.57;6.70;;;1.00;99.90;;;;;;5119929;28;20302;-68
2023/03/01 03:15:08;;;;;;;8.38;6.38;;;1.00;99.90;;;;;;5119791;28;20027;-67
2023/03/01 03:17:40;;;;;;;8.10;6.28;;;1.00;99.90;;;;;;5102846;28;20035;-67
2023/03/01 03:20:11;;;;;;;8.37;6.47;;;0.90;99.90;;;;;;5120547;28;20028;-67
2023/03/01 03:22:40;;;;;;;8.90;6.50;;;0.90;99.90;;;;;;5119748;28;20032;-67
2023/03/01 03:25:10;;;;;;;10.30;6.60;;;1.00;99.90;;;;;;5120639;28;20108;-67
2023/03/01 03:27:43;;;;;;;8.10;6.72;;;1.00;99.90;;;;;;5119523;28;20030;-67
2023/03/01 03:30:13;;;;;;;11.15;6.80;;;1.00;99.90;;;;;;5120663;28;20058;-67
2023/03/01 03:32:40;;;;;;;10.15;6.70;;;0.90;99.90;;;;;;5119542;28;20070;-67
2023/03/01 03:35:09;;;;;;;7.47;6.20;;;0.90;99.90;;;;;;5102971;28;20031;-67
2023/03/01 03:40:26;;;;;;;8.10;6.25;;;0.90;99.90;;;;;;5119589;28;20042;-67
2023/03/01 03:42:52;;;;;;;8.40;7.03;;;0.90;99.90;;;;;;5119414;28;20019;-67
2023/03/01 03:45:18;;;;;;;9.98;6.20;;;0.80;99.90;;;;;;5119992;28;20035;-67
2023/03/01 03:47:44;;;;;;;10.60;6.88;;;0.70;99.90;;;;;;5119247;28;20024;-67
2023/03/01 03:50:13;;;;;;;9.02;6.70;;;0.70;99.90;;;;;;5120300;28;20024;-67
2023/03/01 03:52:39;;;;;;;9.88;6.65;;;0.70;99.90;;;;;;5119706;28;20048;-67
2023/03/01 03:55:09;;;;;;;9.35;6.78;;;0.70;99.90;;;;;;5119905;28;20298;-67
2023/03/01 03:57:42;;;;;;;8.52;6.88;;;0.80;99.90;;;;;;5102087;28;20098;-67
2023/03/01 04:00:12;;;;;;;;;;;0.80;99.90;;;;;;5120565;27;20054;-67
2023/03/01 04:02:45;;;;;;;9.23;6.63;;;0.70;99.90;;;;;;5119025;28;19907;-67
2023/03/01 04:05:14;;;;;;;8.65;6.60;;;0.60;99.90;;;;;;5119761;27;20402;-67
2023/03/01 04:07:41;;;;;;;10.63;6.53;;;0.70;99.90;;;;;;5119195;28;20074;-67
2023/03/01 04:10:13;;;;;;;8.82;6.97;;;0.60;99.90;;;;;;5118770;28;20027;-67
2023/03/01 04:12:38;;;;;;;9.77;6.72;;;0.60;99.90;;;;;;5119571;28;20058;-67
2023/03/01 04:15:12;;;;;;;9.10;6.80;;;0.60;99.90;;;;;;5119477;28;20108;-67
2023/03/01 04:17:46;;;;;;;7.70;6.32;;;0.60;99.90;;;;;;5119495;28;20041;-67
2023/03/01 04:20:24;;;;;;;11.88;6.95;;;0.60;99.90;;;;;;5119310;28;20076;-66
2023/03/01 04:22:58;;;;;;;7.97;6.25;;;0.60;99.90;;;;;;5119157;28;20097;-66
2023/03/01 04:25:24;;;;;;;11.95;6.70;;;0.60;99.90;;;;;;5118823;28;20028;-66
2023/03/01 04:27:52;;;;;;;9.50;6.85;;;0.60;99.90;;;;;;5118455;28;20028;-65
2023/03/01 04:30:18;;;;;;;9.15;6.75;;;0.60;99.90;;;;;;5084700;28;20486;-66
2023/03/01 04:32:44;;;;;;;9.43;6.75;;;0.60;99.90;;;;;;5101299;28;20500;-66
2023/03/01 04:35:09;;;;;;;8.38;6.55;;;0.50;99.90;;;;;;5101479;28;20027;-66
2023/03/01 04:37:35;;;;;;;10.52;6.72;;;0.50;99.90;;;;;;5118300;28;20023;-66
2023/03/01 04:40:12;;;;;;;9.00;7.13;;;0.50;99.90;;;;;;5118595;28;20031;-66
2023/03/01 04:42:38;;;;;;;9.20;6.25;;;0.50;99.90;;;;;;5118848;28;20041;-66
2023/03/01 04:45:12;;;;;;;9.02;6.70;;;0.50;99.90;;;;;;5118778;28;20050;-66
2023/03/01 04:47:44;;;;;;;8.75;6.93;;;0.60;99.90;;;;;;5102182;28;20032;-66
2023/03/01 04:50:11;;;;;;;9.73;7.63;;;0.60;99.90;;;;;;5118409;28;20298;-66
2023/03/01 04:52:37;;;;;;;10.80;6.90;;;0.60;99.90;;;;;;5118830;28;20044;-66
2023/03/01 04:55:04;;;;;;;11.18;7.15;;;0.50;99.90;;;;;;5117930;28;20122;-66
2023/03/01 04:57:30;;;;;;;9.45;6.95;;;0.40;99.90;;;;;;5118532;28;20085;-66
2023/03/01 04:59:56;;;;;;;11.43;7.15;;;0.40;99.90;;;;;;5118509;28;20035;-66
2023/03/01 05:02:22;;;;;;;10.30;6.47;;;0.30;99.90;;;;;;5117774;28;20035;-68
2023/03/01 05:04:48;;;;;;;8.23;6.47;;;0.30;99.90;;;;;;5117613;28;20066;-66
2023/03/01 05:07:19;;;;;;;9.05;6.90;;;0.30;99.90;;;;;;5118363;28;20306;-65
2023/03/01 05:09:48;;;;;;;9.93;7.10;;;0.30;99.90;;;;;;5101784;28;20036;-66
2023/03/01 05:12:14;;;;;;;8.82;6.82;;;0.30;99.90;;;;;;5118675;28;20082;-66
2023/03/01 05:14:41;;;;;;;10.07;6.60;;;0.40;99.90;;;;;;5117540;28;20042;-66
2023/03/01 05:17:07;;;;;;;9.50;6.63;;;0.30;99.90;;;;;;5118231;28;20303;-66
2023/03/01 05:19:34;;;;;;;9.48;7.03;;;0.30;99.90;;;;;;5118179;28;20027;-65
2023/03/01 05:22:06;;;;;;;11.13;7.15;;;0.30;99.90;;;;;;5117382;28;20405;-66
2023/03/01 05:24:35;;;;;;;8.88;6.65;;;0.30;99.90;;;;;;5117345;28;20035;-66
2023/03/01 05:27:02;;;;;;;10.75;8.02;;;0.30;99.90;;;;;;5117223;28;20383;-66
2023/03/01 05:29:30;;;;;;;9.77;7.25;;;0.30;99.90;;;;;;5117946;28;20023;-66
2023/03/01 05:31:58;;;;;;;9.48;7.25;;;0.30;99.90;;;;;;5117872;28;20028;-66
2023/03/01 05:34:33;;;;;;;9.82;6.88;;;0.20;99.90;;;;;;5117080;28;20035;-66
2023/03/01 05:36:59;;;;;;;11.05;7.25;;;0.20;99.90;;;;;;5118390;28;20080;-65
2023/03/01 05:39:26;;;;;;;12.65;7.85;;;0.20;99.90;;;;;;5099948;28;20039;-66
2023/03/01 05:41:54;;;;;;;11.52;7.05;;;0.20;99.90;;;;;;5116939;28;20031;-66
2023/03/01 05:44:20;;;;;;;11.00;7.85;;;0.20;99.90;;;;;;5117633;28;20028;-66
2023/03/01 05:46:47;;;;;;;9.85;6.88;;;0.10;99.90;;;;;;5117728;28;20057;-66
2023/03/01 05:49:14;;;;;;;11.98;7.35;;;0.10;99.90;;;;;;5117623;28;20020;-66
2023/03/01 05:51:41;;;;;;;9.80;7.13;;;0.00;99.90;;;;;;5099990;28;20089;-66
2023/03/01 05:54:08;;;;;;;11.18;7.15;;;0.10;99.90;;;;;;5116684;28;20067;-66
2023/03/01 05:56:34;;;;;;;9.13;7.13;;;0.10;99.90;;;;;;5099785;28;20403;-66
2023/03/01 05:59:01;;;;;;;9.80;6.40;;;0.10;99.90;;;;;;5117526;28;20036;-67
2023/03/01 06:01:27;;;;;;;15.10;7.10;;;0.10;99.90;;;;;;5116687;28;20042;-66
2023/03/01 06:03:53;;;;;;;12.05;6.95;;;0.10;99.90;;;;;;5117333;28;20027;-66
2023/03/01 06:06:19;;;;;;;9.95;6.88;;;0.10;99.90;;;;;;5117462;28;20166;-66
2023/03/01 06:08:45;;;;;;;14.18;8.02;;;0.10;99.90;;;;;;5116593;28;20036;-66
2023/03/01 06:11:10;;;;;;;12.38;7.53;;;0.00;99.90;;;;;;5099483;28;20040;-66
2023/03/01 06:13:36;;;;;;;11.57;7.38;;;0.10;99.90;;;;;;5116505;28;20028;-66
2023/03/01 06:16:06;;;;;;;10.65;7.25;;;0.10;99.90;;;;;;5116660;28;20106;-65
2023/03/01 06:18:32;;;;;;;14.07;7.25;;;0.10;99.90;;;;;;5117112;28;20310;-64
2023/03/01 06:20:58;;;;;;;9.82;7.38;;;0.10;99.90;;;;;;5117224;28;20036;-64
2023/03/01 06:23:24;;;;;;;11.50;7.03;;;0.00;99.90;;;;;;5116543;28;20040;-65
2023/03/01 06:25:50;;;;;;;10.43;6.35;;;0.00;99.90;;;;;;5116539;28;20027;-64
2023/03/01 06:28:16;;;;;;;11.07;7.25;;;0.00;99.90;;;;;;5117252;28;20034;-64
2023/03/01 06:30:42;;;;;;;12.45;7.70;;;-0.10;99.90;;;;;;5116506;28;20023;-67
2023/03/01 06:33:08;;;;;;;13.45;7.80;;;-0.10;99.90;;;;;;5099579;28;20039;-64
2023/03/01 06:35:34;;;;;;;11.23;7.07;;;-0.10;99.90;;;;;;5099334;28;20411;-65
2023/03/01 06:38:02;;;;;;;11.93;7.13;;;-0.10;99.90;;;;;;5117062;28;20027;-66
2023/03/01 06:40:29;;;;;;;11.13;7.97;;;-0.10;99.90;;;;;;5117143;28;20040;-67
2023/03/01 06:42:54;;;;;;;12.27;7.93;;;0.00;99.90;;;;;;5116750;28;20405;-67
2023/03/01 06:45:21;;;;;;;10.95;7.43;;;0.00;99.90;;;;;;5099410;28;20114;-65
2023/03/01 06:47:47;;;;;;;12.10;7.10;;;0.00;99.90;;;;;;5099405;28;20028;-65
2023/03/01 06:50:14;;;;;;;13.23;7.75;;;0.10;99.90;;;;;;5117036;28;20035;-65
2023/03/01 06:52:40;;;;;;;13.13;7.80;;;0.10;99.90;;;;;;5117089;28;20101;-65
2023/03/01 06:55:06;;;;;;;13.02;7.53;;;0.20;99.90;;;;;;5116078;28;20024;-65
2023/03/01 06:57:32;;;;;;;11.40;7.43;;;0.10;99.90;;;;;;5099372;28;20138;-65
2023/03/01 06:59:58;;;;;;;10.63;7.07;;;0.10;99.90;;;;;;5116142;28;20399;-65
2023/03/01 07:02:24;;;;;;;10.98;7.30;;;0.10;99.90;;;;;;5099501;28;20062;-66
2023/03/01 07:04:51;;;;;;;11.45;6.95;;;0.20;99.90;;;;;;5117123;28;20078;-66
2023/03/01 07:07:17;;;;;;;10.50;7.38;;;0.30;99.90;;;;;;5116832;28;20024;-66
2023/03/01 07:09:45;;;;;;;13.57;8.25;;;0.30;99.90;;;;;;5116699;28;20042;-66
2023/03/01 07:12:11;;;;;;;9.93;7.38;;;0.40;99.90;;;;;;5115822;28;20088;-65
2023/03/01 07:14:36;;;;;;;14.40;8.18;;;0.40;99.90;;;;;;5119310;28;20039;-64
2023/03/01 07:17:02;;;;;;;13.48;8.68;;;0.40;99.90;;;;;;5103392;28;20035;-64
2023/03/01 07:19:28;;;;;;;9.82;7.57;;;0.50;99.90;;;;;;5102779;28;20425;-65
2023/03/01 07:21:55;;;;;;;14.57;8.00;;;0.60;99.90;;;;;;5120387;28;20080;-65
2023/03/01 07:24:22;;;;;;;14.55;7.75;;;0.60;99.90;;;;;;5120295;28;20114;-65
2023/03/01 07:26:51;;;;;;;15.43;7.82;;;0.70;99.90;;;;;;5120334;28;20287;-65
2023/03/01 07:29:18;;;;;;;12.85;7.80;;;0.80;99.90;;;;;;5120513;28;20100;-65
2023/03/01 07:31:44;;;;;;;11.35;7.38;;;0.70;99.90;;;;;;5119508;28;20059;-65
2023/03/01 07:34:10;;;;;;;11.30;7.55;;;0.70;99.90;;;;;;5120301;28;20110;-65
2023/03/01 07:36:37;;;;;;;15.35;7.38;;;0.80;99.90;;;;;;5119568;28;20032;-66
2023/03/01 07:39:03;;;;;;;10.32;7.43;;;0.80;99.90;;;;;;5120173;28;20360;-66
2023/03/01 07:41:29;;;;;;;12.57;7.63;;;0.90;99.90;;;;;;5120225;28;20287;-66
2023/03/01 07:43:55;;;;;;;14.60;7.55;;;1.00;99.90;;;;;;5102389;28;20118;-66
2023/03/01 07:46:21;;;;;;;9.52;6.82;;;1.20;99.90;;;;;;5119257;28;20102;-66
2023/03/01 07:48:47;;;;;;;9.27;7.20;;;1.20;99.90;;;;;;5119296;28;20034;-66
2023/03/01 07:51:13;;;;;;;11.85;7.63;;;1.20;99.90;;;;;;5119254;28;20047;-66
2023/03/01 07:53:39;;;;;;;11.35;7.00;;;1.20;99.90;;;;;;5119654;28;20050;-67
2023/03/01 07:56:19;;;;;;;14.00;7.25;;;1.30;99.90;;;;;;5102250;28;20036;-66
2023/03/01 07:58:45;;;;;;;12.70;7.20;;;1.40;99.90;;;;;;5120343;28;20046;-67
2023/03/01 08:01:14;;;;;;;11.25;7.75;;;1.40;99.90;;;;;;5118965;28;20015;-67
2023/03/01 08:03:41;;;;;;;12.07;7.18;;;1.50;99.90;;;;;;5119664;28;20111;-67
2023/03/01 08:06:08;;;;;;;12.10;6.97;;;1.60;99.90;;;;;;5119677;28;20035;-67
2023/03/01 08:08:35;;;;;;;13.23;7.50;;;1.80;99.90;;;;;;5119532;28;20398;-67
2023/03/01 08:11:03;;;;;;;12.73;7.32;;;1.80;99.90;;;;;;5101965;28;20040;-67
2023/03/01 08:13:30;;;;;;;12.32;7.05;;;1.80;99.90;;;;;;5119419;28;20128;-66
2023/03/01 08:16:05;;;;;;;9.98;6.82;;;1.90;99.90;;;;;;5119343;28;20039;-66
2023/03/01 08:18:31;;;;;;;8.40;6.30;;;2.00;99.90;;;;;;5118728;28;20073;-68
2023/03/01 08:21:11;;;;;;;13.70;6.95;;;2.00;99.90;;;;;;5119409;27;20039;-67
2023/03/01 08:23:37;;;;;;;13.20;7.43;;;2.10;99.90;;;;;;5119271;28;20310;-67
2023/03/01 08:26:14;;;;;;;9.85;6.70;;;2.00;99.90;;;;;;5117854;28;20035;-66
2023/03/01 08:28:41;;;;;;;12.75;7.10;;;1.90;99.90;;;;;;5101536;28;20023;-67
2023/03/01 08:31:16;;;;;;;10.20;7.43;;;1.80;99.90;;;;;;5119220;28;20440;-67
2023/03/01 08:33:42;;;;;;;12.15;7.18;;;1.90;99.90;;;;;;5118317;28;20035;-67
2023/03/01 08:36:08;;;;;;;9.52;6.60;;;1.90;99.90;;;;;;5084574;28;20039;-66
2023/03/01 08:38:35;;;;;;;11.73;7.18;;;1.90;99.90;;;;;;5118387;28;20299;-67
2023/03/01 08:41:02;;;;;;;10.07;6.75;;;1.90;99.90;;;;;;5118988;27;20291;-68
2023/03/01 08:43:28;;;;;;;11.05;7.03;;;2.10;99.90;;;;;;5118942;27;20391;-67
2023/03/01 08:45:54;;;;;;;11.75;7.22;;;2.30;99.90;;;;;;5118781;28;20425;-67
2023/03/01 08:48:20;;;;;;;12.50;7.10;;;2.40;99.90;;;;;;5118144;28;20056;-66
2023/03/01 08:50:46;;;;;;;13.23;7.47;;;2.60;99.90;;;;;;5084229;28;20024;-67
2023/03/01 08:53:12;;;;;;;10.30;7.18;;;2.50;99.90;;;;;;5118634;28;20040;-67
2023/03/01 08:55:37;;;;;;;12.07;7.47;;;2.60;99.90;;;;;;5117818;28;20032;-69
2023/03/01 08:58:03;;;;;;;13.10;7.70;;;2.70;99.90;;;;;;5118486;28;20304;-67
2023/03/01 09:00:29;;;;;;;11.13;8.00;;;2.90;99.90;;;;;;5118542;28;20088;-66
2023/03/01 09:02:55;;;;;;;8.70;6.40;;;3.10;99.90;;;;;;5118469;28;20036;-66
2023/03/01 09:05:21;;;;;;;13.52;7.07;;;3.30;99.90;;;;;;5100658;28;20169;-67
2023/03/01 09:07:47;;;;;;;9.20;6.95;;;3.20;99.90;;;;;;5117775;28;20028;-67
2023/03/01 09:10:12;;;;;;;11.18;7.45;;;3.20;99.90;;;;;;5118438;28;20019;-66
2023/03/01 09:12:38;;;;;;;11.55;7.20;;;3.30;99.90;;;;;;5100809;28;20031;-67
2023/03/01 09:15:04;;;;;;;9.15;6.57;;;3.30;99.90;;;;;;5117624;28;20409;-66
2023/03/01 09:17:30;;;;;;;10.02;7.63;;;3.40;99.90;;;;;;5118883;28;20081;-66
2023/03/01 09:19:56;;;;;;;9.07;7.03;;;3.50;99.90;;;;;;5117471;28;20402;-66
2023/03/01 09:22:22;;;;;;;9.57;6.60;;;3.60;99.90;;;;;;5117444;28;20126;-67
2023/03/01 09:24:47;;;;;;;10.25;6.20;;;3.60;99.90;;;;;;5100380;28;20039;-64
2023/03/01 09:27:14;;;;;;;9.95;6.78;;;3.60;99.90;;;;;;5118133;28;20259;-66
2023/03/01 09:29:40;;;;;;;7.13;6.22;;;3.70;99.90;;;;;;5117966;28;20034;-66
2023/03/01 09:32:07;;;;;;;8.57;6.85;;;3.70;99.90;;;;;;5100492;28;20032;-67
2023/03/01 09:35:00;;;;;;;8.55;6.22;;;3.80;99.90;;;;;;5117983;28;20096;-67
2023/03/01 09:37:19;;;;;;;8.02;6.53;;;4.00;99.90;;;;;;5116382;28;20399;-66
2023/03/01 09:39:45;;;;;;;12.52;6.63;;;4.10;99.90;;;;;;5117176;28;20042;-67
2023/03/01 09:42:12;;;;;;;10.18;6.65;;;4.20;99.90;;;;;;5100354;28;20027;-67
2023/03/01 09:44:47;;;;;;;9.02;6.97;;;4.30;99.90;;;;;;5117788;28;20346;-68
2023/03/01 09:47:25;;;;;;;9.48;6.53;;;4.50;99.90;;;;;;5118166;28;20414;-66
2023/03/01 09:50:16;;;;;;;10.57;6.45;;;4.40;99.90;;;;;;5117064;28;20019;-65
2023/03/01 09:52:48;;;;;;;7.72;6.05;;;4.40;99.90;;;;;;5099866;28;20131;-66
2023/03/01 09:55:29;;;;;;;8.43;6.80;;;4.60;99.90;;;;;;5116898;28;20140;-66
2023/03/01 09:58:25;;;;;;;12.30;6.97;;;4.60;99.90;;;;;;5117758;28;20265;-67
2023/03/01 10:00:50;;;;;;;8.45;6.63;;;4.80;99.90;;;;;;5116843;28;20338;-66
2023/03/01 10:03:39;;;;;;;10.27;6.55;;;4.90;99.90;;;;;;5083088;28;20043;-67
2023/03/01 10:06:19;;;;;;;8.95;7.07;;;4.90;99.90;;;;;;5099760;28;20028;-67
2023/03/01 10:08:56;;;;;;;11.05;6.57;;;4.90;99.90;;;;;;5117467;28;20032;-66
2023/03/01 10:11:24;;;;;;;9.73;6.72;;;5.00;99.90;;;;;;5117390;28;20028;-66
2023/03/01 10:14:25;;;;;;;9.23;6.57;;;5.10;99.90;;;;;;5117390;28;20126;-66
2023/03/01 10:17:12;;;;;;;9.18;6.93;;;5.40;99.90;;;;;;5111640;28;20036;-66
2023/03/01 10:19:46;;;;;;;8.18;6.43;;;5.40;99.90;;;;;;5117645;28;20264;-66
2023/03/01 10:22:31;;;;;;;12.55;7.05;;;5.60;99.90;;;;;;5117335;28;20389;-65
2023/03/01 10:24:59;;;;;;;10.60;6.38;;;5.70;99.90;;;;;;5099578;28;20031;-67
2023/03/01 10:27:52;;;;;;;9.90;6.88;;;5.80;99.90;;;;;;5117387;28;20044;-66
2023/03/01 10:30:34;;;;;;;8.63;6.40;;;6.30;99.90;;;;;;5116528;28;20272;-67
2023/03/01 10:33:00;;;;;;;8.85;6.40;;;7.00;99.90;;;;;;5117311;28;20294;-66
2023/03/01 10:35:33;;;;;;;7.55;5.95;;;7.60;99.90;;;;;;5117136;28;20280;-68
2023/03/01 10:38:04;;;;;;;;;;;8.30;99.90;;;;;;5117620;28;20115;-68
2023/03/01 10:40:31;;;;;;;6.55;5.18;;;8.50;99.90;;;;;;5117091;28;20271;-67
2023/03/01 10:43:00;;;;;;;8.43;5.78;;;8.50;99.90;;;;;;5116618;28;20358;-65
2023/03/01 10:45:29;;;;;;;7.45;5.20;;;8.60;99.90;;;;;;5117032;28;20349;-68
2023/03/01 10:48:09;;;;;;;7.93;5.63;;;8.90;99.90;;;;;;5117985;28;20307;-67
2023/03/01 10:50:37;;;;;;;6.18;5.40;;;9.50;99.90;;;;;;5121097;28;20024;-67
2023/03/01 10:53:04;;;;;;;10.05;5.55;;;10.30;99.90;;;;;;5120298;28;20476;-68
2023/03/01 10:55:35;;;;;;;10.93;6.05;;;10.80;99.90;;;;;;5120390;28;20028;-67
2023/03/01 10:58:19;;;;;;;7.68;6.07;;;11.40;99.90;;;;;;5121035;28;20047;-65
2023/03/01 11:00:51;;;;;;;8.38;5.82;;;11.50;99.90;;;;;;5120973;28;20129;-65
2023/03/01 11:03:23;;;;;;;7.32;6.03;;;11.50;99.90;;;;;;5120268;28;20031;-66
2023/03/01 11:05:57;;;;;;;;;;;12.20;99.90;;;;;;5120473;28;20089;-65
2023/03/01 11:08:31;;;;;;;7.70;5.97;;;12.60;99.90;;;;;;5103116;28;20002;-66
2023/03/01 11:11:12;;;;;;;9.40;6.05;;;13.40;99.90;;;;;;5119921;28;20024;-65
2023/03/01 11:13:55;;;;;;;8.32;5.60;;;11.40;99.90;;;;;;5119891;28;20024;-65
2023/03/01 11:16:39;;;;;;;7.63;5.82;;;12.20;99.90;;;;;;5119815;28;20038;-65
2023/03/01 11:19:19;;;;;;;9.35;6.55;;;12.90;99.90;;;;;;5120542;28;20126;-66
2023/03/01 11:22:20;;;;;;;6.85;5.60;;;12.70;99.90;;;;;;5120700;28;20034;-66
2023/03/01 11:24:50;;;;;;;7.43;6.00;;;13.70;99.90;;;;;;5102593;28;20100;-65
2023/03/01 11:27:29;;;;;;;8.40;5.78;;;13.90;99.90;;;;;;5119810;28;20027;-65
2023/03/01 11:30:07;;;;;;;6.53;5.60;;;14.60;99.90;;;;;;5120439;28;20268;-66
2023/03/01 11:33:11;;;;;;;7.28;5.70;;;15.30;99.40;;;;;;5119604;28;20024;-66
2023/03/01 11:36:00;;;;;;;6.18;5.50;;;15.60;97.30;;;;;;5088725;28;20035;-66
2023/03/01 11:38:28;;;;;;;6.65;5.72;;;15.70;95.50;;;;;;5113619;28;20048;-66
2023/03/01 11:41:02;;;;;;;6.07;5.47;;;14.90;95.20;;;;;;5119249;28;20027;-66
2023/03/01 11:43:51;;;;;;;5.82;5.18;;;14.30;95.40;;;;;;5119411;28;20027;-67
2023/03/01 11:46:29;;;;;;;7.10;5.25;;;14.90;95.30;;;;;;5119945;28;20385;-66
2023/03/01 11:49:22;;;;;;;5.75;5.07;;;15.70;93.70;;;;;;5119650;28;20088;-64
2023/03/01 11:52:12;;;;;;;5.40;4.90;;;14.90;92.40;;;;;;5119922;28;20062;-64
2023/03/01 11:54:41;;;;;;;6.70;5.65;;;12.70;94.80;;;;;;5119004;28;20398;-65
2023/03/01 11:57:37;;;;;;;7.20;5.80;;;11.80;97.70;;;;;;5119814;28;20345;-65
2023/03/01 12:00:33;;;;;;;5.82;5.22;;;12.00;97.70;;;;;;5118845;28;20077;-65
2023/03/01 12:03:22;;;;;;;9.20;5.47;;;12.00;97.70;;;;;;5120345;28;20151;-65
2023/03/01 12:06:06;;;;;;;8.00;5.70;;;12.30;97.80;;;;;;5118507;28;20415;-67
2023/03/01 12:08:50;;;;;;;8.07;6.03;;;13.00;97.20;;;;;;5120396;28;20275;-66
2023/03/01 12:11:36;;;;;;;7.30;5.63;;;13.20;97.30;;;;;;5101749;28;20340;-67
2023/03/01 12:14:05;;;;;;;5.93;4.80;;;14.20;96.40;;;;;;5101623;28;20051;-65
2023/03/01 12:16:58;;;;;;;7.50;5.28;;;13.70;95.70;;;;;;5118636;28;20039;-67
2023/03/01 12:19:48;;;;;;;7.38;6.00;;;13.50;94.60;;;;;;5118746;28;20046;-66
2023/03/01 12:22:23;;;;;;;6.53;5.30;;;12.60;96.40;;;;;;5119412;28;20035;-66
2023/03/01 12:25:01;;;;;;;6.07;5.47;;;14.00;96.00;;;;;;5119208;27;20115;-65
2023/03/01 12:27:59;;;;;;;7.05;5.22;;;14.70;95.10;;;;;;5118460;28;20024;-64
2023/03/01 12:30:50;;;;;;;7.70;5.65;;;14.10;93.50;;;;;;5118288;28;20028;-65
2023/03/01 12:33:52;;;;;;;10.75;5.90;;;12.80;94.90;;;;;;5119562;28;20318;-66
2023/03/01 12:36:30;;;;;;;6.43;5.07;;;13.10;94.80;;;;;;5108448;28;20075;-66
2023/03/01 12:39:19;;;;;;;6.43;5.72;;;12.60;95.30;;;;;;5118226;28;20330;-65
2023/03/01 12:42:12;;;;;;;7.40;5.05;;;12.30;97.00;;;;;;5101197;28;20362;-65
2023/03/01 12:44:56;;;;;;;6.47;5.50;;;12.40;96.30;;;;;;5117853;28;20035;-64
2023/03/01 12:47:47;;;;;;;6.18;5.50;;;13.10;95.80;;;;;;5118796;28;20047;-65
2023/03/01 12:50:20;;;;;;;6.10;5.50;;;12.10;96.00;;;;;;5117963;28;20027;-66
2023/03/01 12:52:57;;;;;;;7.15;5.72;;;11.90;97.60;;;;;;5100660;28;20043;-66
2023/03/01 12:55:32;;;;;;;8.23;5.68;;;11.80;97.10;;;;;;5118743;28;20047;-65
2023/03/01 12:58:04;;;;;;;7.00;5.45;;;11.90;96.40;;;;;;5100887;28;20088;-67
2023/03/01 13:00:59;;;;;;;7.25;5.57;;;11.60;97.70;;;;;;5100922;28;20116;-66
2023/03/01 13:03:52;;;;;;;6.47;5.43;;;11.40;97.60;;;;;;5097804;28;20410;-66
2023/03/01 13:06:24;;;;;;;8.80;6.10;;;10.90;97.80;;;;;;5117861;28;20035;-67
2023/03/01 13:09:09;;;;;;;7.90;5.30;;;10.80;99.20;;;;;;5118591;28;20031;-66
2023/03/01 13:11:35;;;;;;;6.43;5.30;;;11.20;98.20;;;;;;5117445;28;20095;-66
2023/03/01 13:14:25;;;;;;;8.00;5.90;;;11.50;97.70;;;;;;5083849;28;20027;-66
2023/03/01 13:16:52;;;;;;;7.18;5.30;;;11.80;98.40;;;;;;5118317;28;20026;-66
2023/03/01 13:19:29;;;;;;;12.68;6.18;;;11.70;96.90;;;;;;5100641;28;20031;-66